San Rafael, CA

6:31 AM PST on December 22, 2014 (GMT -0800)
Petaluma | Change Station
CLOSE
Current Station
Airport
Location: Petaluma,
Elevation: 89 ft
Nearby Weather Stations
Active Advisory: Coastal Flood Advisory

Elev 89 ft 38.26 °N, 122.61 °W | Updated 6 days ago

Partly Cloudy
Partly Cloudy
57 °F
Feels Like 57 °F
N
7
Wind Variable Wind from NW
Gusts 10 mph

Today
High -- | Low -- °F
--% Chance of Precip.
Yesterday
High -- | Low -- °F
Precip. -- in
7:22 AM 4:54 PM
New Moon, 0% visible
Pressure 29.89 in
Visibility 3.0 miles
Clouds Few 1800 ft
Scattered Clouds 3000 ft
Mostly Cloudy 3800 ft
Dew Point 57 °F
Humidity 100%
Rainfall 2.90 in
Snow Depth Not available.
UV 1 out of 12
Pollen 4.40 out of 12
Air Quality Not available.
Flu Activity Not available.
METAR KO69 151935Z AUTO 09012G16KT 3SM FEW018 SCT030 BKN038 09/09 A2989 RMK AO1 P0015

More Conditions Fewer Conditions

Pressure 29.89 in
Visibility 3.0 miles
Clouds Few 1800 ft
Scattered Clouds 3000 ft
Mostly Cloudy 3800 ft
Dew Point 57 °F
Humidity 100%
Rainfall 2.90 in
Snow Depth Not available.
UV 1 out of 12
Pollen 4.40 out of 12
Air Quality Not available.
Flu Activity Not available.
METAR KO69 151935Z AUTO 09012G16KT 3SM FEW018 SCT030 BKN038 09/09 A2989 RMK AO1 P0015

More Conditions Fewer Conditions

Nowcast | as of 5:41 am PST on December 22, 2014

Patchy dense fog is affecting portions of the East Bay...North Bay valleys...and Monterey Bay this morning. This fog will continue through mid morning...locally reducing visibility to one quarter mile or less. Motorists are urged to drive with caution as visibility can decrease quickly over short distances.

×

10-Day Weather Forecast

Almanac

Astronomy

Dec. 22, 2014 Rise Set
Actual Time
Civil Twilight
Nautical Twilight
Astronomical Twilight
Moon
Length of Visible Light
Length of Day
Tomorrow will be .
, % of the Moon is Illuminated

Today's Extremes

State Highs State Lows

Community

WunderPhotos

Upload Photos

1,779,608 photos uploaded!

WunderBlogs® & News

Nearby

Air Quality

  Air Quality AQ Index Pollutant
Not available.

Snow Depth

Station Depth Elevation

Earthquake Activity

City Distance Mag. Time & Date
Minimum magnitude displayed is 2.5.

Coastal Water Temperatures

Place Temperature

Nearby Weather Stations